Time;durP1;ratioP1;P1;durP2;ratioP2;P2;SDS_P1;SDS_P2;PMS_P1;PMS_P2;Temp;Humidity;BMP_temperature;BMP_pressure;BME280_temperature;BME280_humidity;BME280_pressure;Samples;Min_cycle;Max_cycle;Signal;HPM_P1;HPM_P2
2023/01/23 00:01:12;;;;;;;10.27;8.03;;;4.30;99.90;;;;;;4994860;28;20203;-65
2023/01/23 00:03:37;;;;;;;10.47;7.83;;;4.30;99.90;;;;;;4997017;28;20367;-65
2023/01/23 00:06:06;;;;;;;10.67;8.10;;;4.40;99.90;;;;;;5019001;28;20170;-65
2023/01/23 00:08:36;;;;;;;10.50;7.73;;;4.40;99.90;;;;;;4996435;28;20179;-64
2023/01/23 00:11:12;;;;;;;10.60;8.37;;;4.40;99.90;;;;;;4994755;28;20203;-64
2023/01/23 00:13:38;;;;;;;10.60;7.77;;;4.40;99.90;;;;;;5008038;28;20181;-64
2023/01/23 00:16:20;;;;;;;10.73;7.87;;;4.40;99.90;;;;;;5033835;28;20174;-66
2023/01/23 00:18:49;;;;;;;10.93;7.47;;;4.40;99.90;;;;;;5022719;28;20230;-64
2023/01/23 00:21:19;;;;;;;10.70;7.83;;;4.40;99.90;;;;;;5013736;28;20202;-65
2023/01/23 00:23:48;;;;;;;10.57;7.67;;;4.40;99.90;;;;;;5014233;28;20194;-64
2023/01/23 00:26:20;;;;;;;10.87;7.97;;;4.40;99.90;;;;;;5014274;28;20170;-65
2023/01/23 00:28:48;;;;;;;10.93;8.00;;;4.40;99.90;;;;;;5014358;28;20182;-64
2023/01/23 00:31:17;;;;;;;10.53;7.90;;;4.40;99.90;;;;;;5014221;28;20301;-64
2023/01/23 00:33:46;;;;;;;11.73;7.53;;;4.40;99.90;;;;;;5014346;28;20206;-63
2023/01/23 00:36:15;;;;;;;11.20;8.07;;;4.40;99.90;;;;;;5014298;28;20175;-65
2023/01/23 00:38:41;;;;;;;10.53;7.47;;;4.40;99.90;;;;;;5012667;28;20210;-65
2023/01/23 00:41:06;;;;;;;11.73;8.07;;;4.40;99.90;;;;;;5013809;28;20195;-65
2023/01/23 00:43:32;;;;;;;9.73;8.13;;;4.40;99.90;;;;;;5014042;28;20181;-65
2023/01/23 00:46:01;;;;;;;11.07;8.23;;;4.40;99.90;;;;;;5013892;28;20230;-65
2023/01/23 00:48:27;;;;;;;10.90;7.83;;;4.30;99.90;;;;;;5013968;28;20186;-65
2023/01/23 00:50:57;;;;;;;10.87;7.70;;;4.30;99.90;;;;;;5013815;28;20174;-64
2023/01/23 00:53:25;;;;;;;9.53;7.40;;;4.40;99.90;;;;;;5001809;28;20295;-65
2023/01/23 00:55:54;;;;;;;10.63;7.63;;;4.40;99.90;;;;;;5012842;28;20178;-65
2023/01/23 00:58:19;;;;;;;12.13;8.33;;;4.40;99.90;;;;;;5017986;28;20187;-65
2023/01/23 01:00:45;;;;;;;11.83;8.37;;;4.40;99.90;;;;;;5017779;28;20206;-64
2023/01/23 01:03:15;;;;;;;10.50;7.73;;;4.40;99.90;;;;;;5017919;28;20244;-65
2023/01/23 01:05:41;;;;;;;11.03;7.90;;;4.40;99.90;;;;;;5017870;28;20198;-65
2023/01/23 01:08:07;;;;;;;9.80;7.70;;;4.40;99.90;;;;;;5017568;28;20249;-66
2023/01/23 01:10:35;;;;;;;10.93;8.13;;;4.40;99.90;;;;;;5017624;28;20241;-65
2023/01/23 01:13:05;;;;;;;10.67;7.83;;;4.40;99.90;;;;;;5011423;28;20222;-65
2023/01/23 01:15:31;;;;;;;10.53;7.97;;;4.40;99.90;;;;;;5006851;28;20181;-66
2023/01/23 01:18:00;;;;;;;10.70;8.30;;;4.40;99.90;;;;;;5017896;28;20341;-66
2023/01/23 01:20:27;;;;;;;11.53;7.93;;;4.40;99.90;;;;;;5017213;28;20218;-65
2023/01/23 01:22:54;;;;;;;10.93;7.80;;;4.40;99.90;;;;;;5017184;28;20207;-65
2023/01/23 01:25:20;;;;;;;10.53;7.80;;;4.40;99.90;;;;;;5017236;28;20174;-65
2023/01/23 01:27:48;;;;;;;10.80;8.33;;;4.40;99.90;;;;;;5017362;28;20190;-65
2023/01/23 01:30:15;;;;;;;11.03;7.87;;;4.40;99.90;;;;;;5017172;28;20175;-64
2023/01/23 01:32:43;;;;;;;12.47;8.90;;;4.40;99.90;;;;;;5017150;28;20260;-65
2023/01/23 01:35:09;;;;;;;11.37;8.40;;;4.40;99.90;;;;;;5017210;28;20170;-64
2023/01/23 01:37:36;;;;;;;11.47;8.17;;;4.30;99.90;;;;;;5001162;28;20326;-64
2023/01/23 01:40:04;;;;;;;9.73;7.53;;;4.40;99.90;;;;;;5014896;28;20289;-65
2023/01/23 01:42:30;;;;;;;12.23;8.70;;;4.30;99.90;;;;;;5017165;28;20253;-64
2023/01/23 01:45:01;;;;;;;12.97;8.77;;;4.30;99.90;;;;;;5017050;28;20269;-64
2023/01/23 01:47:29;;;;;;;11.70;8.40;;;4.20;99.90;;;;;;5004358;28;20199;-65
2023/01/23 01:50:01;;;;;;;11.10;8.73;;;4.20;99.90;;;;;;4997193;28;20182;-65
2023/01/23 01:52:29;;;;;;;11.87;8.60;;;4.20;99.90;;;;;;5003488;28;20226;-65
2023/01/23 01:55:00;;;;;;;11.60;8.53;;;4.10;99.90;;;;;;4996741;28;20195;-64
2023/01/23 01:57:42;;;;;;;11.17;8.23;;;4.10;99.90;;;;;;4997242;28;20179;-64
2023/01/23 02:00:10;;;;;;;11.90;8.50;;;4.10;99.90;;;;;;4996981;28;20293;-64
2023/01/23 02:02:44;;;;;;;12.10;8.80;;;4.10;99.90;;;;;;4996895;28;20171;-64
2023/01/23 02:05:13;;;;;;;11.37;8.53;;;4.00;99.90;;;;;;4997229;28;20179;-64
2023/01/23 02:07:47;;;;;;;11.40;8.50;;;4.10;99.90;;;;;;5004789;28;20222;-65
2023/01/23 02:10:15;;;;;;;10.33;8.10;;;4.10;99.90;;;;;;5016593;28;20175;-64
2023/01/23 02:12:45;;;;;;;11.77;8.27;;;4.10;99.90;;;;;;5016427;28;20250;-65
2023/01/23 02:15:11;;;;;;;11.93;8.97;;;4.10;99.90;;;;;;5028464;28;20238;-65
2023/01/23 02:17:39;;;;;;;11.40;8.37;;;4.10;99.90;;;;;;5009530;28;20218;-65
2023/01/23 02:20:07;;;;;;;11.93;8.20;;;4.10;99.90;;;;;;5016149;28;20213;-65
2023/01/23 02:22:54;;;;;;;13.73;8.47;;;4.10;99.90;;;;;;5017413;28;20225;-63
2023/01/23 02:25:36;;;;;;;10.67;7.50;;;4.10;99.90;;;;;;5016500;28;20163;-64
2023/01/23 02:28:02;;;;;;;11.20;8.00;;;4.20;99.90;;;;;;5016275;28;20261;-65
2023/01/23 02:30:28;;;;;;;10.67;7.90;;;4.20;99.90;;;;;;5016088;28;20232;-65
2023/01/23 02:32:54;;;;;;;11.53;8.13;;;4.20;99.90;;;;;;5015947;28;20183;-65
2023/01/23 02:35:27;;;;;;;12.03;8.50;;;4.20;99.90;;;;;;4997929;28;20211;-64
2023/01/23 02:37:58;;;;;;;12.60;8.57;;;4.20;99.90;;;;;;5015952;28;20248;-63
2023/01/23 02:40:40;;;;;;;12.00;8.40;;;4.20;99.90;;;;;;5016080;28;20293;-64
2023/01/23 02:43:09;;;;;;;12.30;8.80;;;4.20;99.90;;;;;;5015936;28;20220;-64
2023/01/23 02:45:35;;;;;;;12.60;8.67;;;4.20;99.90;;;;;;5016088;28;20175;-65
2023/01/23 02:48:05;;;;;;;11.30;8.47;;;4.30;99.90;;;;;;5015845;28;20261;-64
2023/01/23 02:50:33;;;;;;;12.47;8.93;;;4.20;99.90;;;;;;5015850;28;20197;-64
2023/01/23 02:52:59;;;;;;;11.90;8.77;;;4.20;99.90;;;;;;5018648;28;20200;-64
2023/01/23 02:55:28;;;;;;;11.23;8.03;;;4.20;99.90;;;;;;5020244;28;20186;-66
2023/01/23 03:00:14;;;;;;;11.20;8.57;;;4.20;99.90;;;;;;5015665;28;20340;-64
2023/01/23 03:00:42;;;;;;;11.00;7.77;;;4.20;99.90;;;;;;5015959;28;20214;-64
2023/01/23 03:03:10;;;;;;;11.40;7.83;;;4.20;99.90;;;;;;5002281;28;20207;-64
2023/01/23 03:05:36;;;;;;;11.07;8.00;;;4.20;99.90;;;;;;5007732;28;20347;-64
2023/01/23 03:08:06;;;;;;;12.30;8.67;;;4.20;99.90;;;;;;4999677;28;20175;-63
2023/01/23 03:10:34;;;;;;;10.63;7.57;;;4.20;99.90;;;;;;5015275;28;20199;-64
2023/01/23 03:13:05;;;;;;;12.20;8.13;;;4.30;99.90;;;;;;5015411;28;20179;-64
2023/01/23 03:15:37;;;;;;;11.07;7.83;;;4.20;99.90;;;;;;4999145;28;20371;-65
2023/01/23 03:18:05;;;;;;;11.60;7.93;;;4.20;99.90;;;;;;4995815;28;20180;-64
2023/01/23 03:20:39;;;;;;;11.97;8.13;;;4.20;99.90;;;;;;4995622;28;20207;-64
2023/01/23 03:23:04;;;;;;;10.70;7.40;;;4.20;99.90;;;;;;4995379;28;20209;-64
2023/01/23 03:25:30;;;;;;;10.37;7.43;;;4.20;99.90;;;;;;5011676;28;20190;-66
2023/01/23 03:27:56;;;;;;;10.87;7.83;;;4.20;99.90;;;;;;5015175;28;20200;-64
2023/01/23 03:30:24;;;;;;;11.10;7.93;;;4.20;99.90;;;;;;5009631;28;20207;-64
2023/01/23 03:32:51;;;;;;;10.57;7.73;;;4.20;99.90;;;;;;4995513;28;20197;-64
2023/01/23 03:35:21;;;;;;;10.80;7.57;;;4.30;99.90;;;;;;4995302;28;20224;-65
2023/01/23 03:37:52;;;;;;;10.67;7.53;;;4.30;99.90;;;;;;4995250;28;20202;-65
2023/01/23 03:43:06;;;;;;;11.67;7.93;;;4.30;99.90;;;;;;5010873;28;20225;-64
2023/01/23 03:45:34;;;;;;;11.60;8.03;;;4.30;99.90;;;;;;4995401;28;20175;-65
2023/01/23 03:48:02;;;;;;;12.40;8.10;;;4.30;99.90;;;;;;5011881;28;20204;-64
2023/01/23 03:50:32;;;;;;;11.13;8.03;;;4.30;99.90;;;;;;5013067;28;20195;-64
2023/01/23 03:53:03;;;;;;;11.67;7.80;;;4.30;99.90;;;;;;5002105;28;20253;-64
2023/01/23 03:55:31;;;;;;;10.67;7.63;;;4.20;99.90;;;;;;5003447;28;20219;-64
2023/01/23 03:57:56;;;;;;;10.97;7.57;;;4.30;99.90;;;;;;4996853;28;20199;-63
2023/01/23 04:00:24;;;;;;;10.63;8.10;;;4.20;99.90;;;;;;5014576;28;20214;-64
2023/01/23 04:02:52;;;;;;;10.80;7.77;;;4.20;99.90;;;;;;5013494;28;20179;-64
2023/01/23 04:05:17;;;;;;;10.70;8.13;;;4.20;99.90;;;;;;5014546;28;20266;-64
2023/01/23 04:07:45;;;;;;;11.67;8.03;;;4.30;99.90;;;;;;5014460;28;20628;-65
2023/01/23 04:10:11;;;;;;;11.57;7.63;;;4.20;99.90;;;;;;5013996;28;20194;-65
2023/01/23 04:12:40;;;;;;;10.97;7.87;;;4.20;99.90;;;;;;5014419;28;20221;-64
2023/01/23 04:15:06;;;;;;;10.93;7.77;;;4.20;99.90;;;;;;5010838;28;20191;-64
2023/01/23 04:17:35;;;;;;;11.73;7.53;;;4.20;99.90;;;;;;4996089;28;20192;-63
2023/01/23 04:20:00;;;;;;;10.90;7.80;;;4.20;99.90;;;;;;5013757;28;20230;-64
2023/01/23 04:22:27;;;;;;;10.53;7.27;;;4.20;99.90;;;;;;5012516;28;20210;-64
2023/01/23 04:24:55;;;;;;;10.17;7.67;;;4.20;99.90;;;;;;5009600;28;20297;-64
2023/01/23 04:27:20;;;;;;;21.20;14.90;;;4.20;99.90;;;;;;5001749;28;20167;-65
2023/01/23 04:29:46;;;;;;;21.30;15.13;;;4.20;99.90;;;;;;4995762;28;20315;-63
2023/01/23 04:32:12;;;;;;;15.70;10.80;;;4.20;99.90;;;;;;5005497;28;20252;-64
2023/01/23 04:34:38;;;;;;;14.27;10.23;;;4.10;99.90;;;;;;5014359;28;20181;-65
2023/01/23 04:37:07;;;;;;;16.13;11.43;;;4.10;99.90;;;;;;5014166;28;20269;-64
2023/01/23 04:39:32;;;;;;;15.63;11.40;;;4.10;99.90;;;;;;5014087;28;20194;-64
2023/01/23 04:41:58;;;;;;;13.97;9.93;;;4.10;99.90;;;;;;4995336;28;20274;-64
2023/01/23 04:44:26;;;;;;;11.43;9.03;;;4.00;99.90;;;;;;5010313;28;20198;-63
2023/01/23 04:46:53;;;;;;;12.13;8.90;;;4.00;99.90;;;;;;5000109;28;20222;-65
2023/01/23 04:49:19;;;;;;;13.27;8.97;;;4.00;99.90;;;;;;4994595;28;20175;-64
2023/01/23 04:51:46;;;;;;;12.23;8.80;;;4.00;99.90;;;;;;4994453;28;20198;-63
2023/01/23 04:54:12;;;;;;;11.37;8.30;;;4.00;99.90;;;;;;5007573;28;20277;-63
2023/01/23 04:56:41;;;;;;;12.13;8.63;;;4.00;99.90;;;;;;5014184;28;20268;-63
2023/01/23 04:59:11;;;;;;;14.50;10.67;;;3.90;99.90;;;;;;5014748;28;20258;-63
2023/01/23 05:01:37;;;;;;;20.03;14.17;;;3.90;99.90;;;;;;5014087;28;20368;-64
2023/01/23 05:04:05;;;;;;;15.87;11.63;;;3.90;99.90;;;;;;4997542;28;20181;-63
2023/01/23 05:06:33;;;;;;;13.17;9.63;;;3.90;99.90;;;;;;5005322;28;20229;-65
2023/01/23 05:08:58;;;;;;;13.30;9.67;;;3.90;99.90;;;;;;5013926;28;20179;-63
2023/01/23 05:11:27;;;;;;;11.47;8.10;;;3.90;99.90;;;;;;5013572;28;20182;-64
2023/01/23 05:13:52;;;;;;;10.93;8.40;;;3.90;99.90;;;;;;5022459;28;20205;-64
2023/01/23 05:16:18;;;;;;;11.93;8.57;;;3.90;99.90;;;;;;5023470;28;20179;-63
2023/01/23 05:18:43;;;;;;;12.33;8.53;;;3.80;99.90;;;;;;5015830;28;20270;-63
2023/01/23 05:21:12;;;;;;;11.37;8.57;;;3.80;99.90;;;;;;5018349;28;20218;-64
2023/01/23 05:23:37;;;;;;;11.13;8.00;;;3.80;99.90;;;;;;5013917;28;20177;-64
2023/01/23 05:26:03;;;;;;;10.63;7.70;;;3.80;99.90;;;;;;5004736;28;20180;-64
2023/01/23 05:28:31;;;;;;;9.97;7.13;;;3.80;99.90;;;;;;4996128;28;20183;-64
2023/01/23 05:30:56;;;;;;;12.37;8.30;;;3.90;99.90;;;;;;5002435;28;20270;-64
2023/01/23 05:33:24;;;;;;;12.60;9.33;;;3.80;99.90;;;;;;4993904;28;20293;-64
2023/01/23 05:35:50;;;;;;;11.83;8.60;;;3.90;99.90;;;;;;4996957;28;20186;-63
2023/01/23 05:38:15;;;;;;;11.53;7.90;;;3.90;99.90;;;;;;5014717;28;20190;-64
2023/01/23 05:40:41;;;;;;;11.57;8.27;;;3.90;99.90;;;;;;5016718;28;20246;-63
2023/01/23 05:43:10;;;;;;;10.60;7.67;;;3.90;99.90;;;;;;5016871;28;20205;-63
2023/01/23 05:45:36;;;;;;;10.83;7.53;;;3.90;99.90;;;;;;5016649;28;20200;-63
2023/01/23 05:48:02;;;;;;;12.30;8.10;;;3.90;99.90;;;;;;5016780;28;20269;-63
2023/01/23 05:50:27;;;;;;;11.50;8.50;;;3.90;99.90;;;;;;4999356;28;20183;-64
2023/01/23 05:52:53;;;;;;;10.67;8.10;;;4.00;99.90;;;;;;4996958;28;20223;-64
2023/01/23 05:55:18;;;;;;;10.93;7.93;;;4.00;99.90;;;;;;4996872;28;20270;-64
2023/01/23 05:57:44;;;;;;;10.73;7.67;;;3.90;99.90;;;;;;5006197;28;20183;-64
2023/01/23 06:00:13;;;;;;;9.83;7.23;;;3.90;99.90;;;;;;5016311;28;20210;-64
2023/01/23 06:02:38;;;;;;;9.83;7.03;;;4.00;99.90;;;;;;4998975;28;20183;-65
2023/01/23 06:05:04;;;;;;;10.43;7.37;;;3.90;99.90;;;;;;4996442;28;20199;-63
2023/01/23 06:07:30;;;;;;;10.00;7.27;;;3.90;99.90;;;;;;5009982;28;20186;-64
2023/01/23 06:09:56;;;;;;;9.80;7.33;;;3.90;99.90;;;;;;5016434;28;20208;-63
2023/01/23 06:12:23;;;;;;;9.83;7.20;;;3.90;99.90;;;;;;5016411;28;20181;-63
2023/01/23 06:14:49;;;;;;;10.83;7.83;;;3.90;99.90;;;;;;5015987;28;20175;-63
2023/01/23 06:17:15;;;;;;;10.27;7.63;;;3.90;99.90;;;;;;5015918;28;20183;-63
2023/01/23 06:19:41;;;;;;;10.03;7.20;;;3.90;99.90;;;;;;5015849;28;20178;-64
2023/01/23 06:22:07;;;;;;;11.13;7.73;;;3.90;99.90;;;;;;5016139;28;20195;-64
2023/01/23 06:24:32;;;;;;;11.17;8.03;;;3.90;99.90;;;;;;5012691;28;20174;-63
2023/01/23 06:27:00;;;;;;;10.53;7.53;;;3.90;99.90;;;;;;4996213;28;20195;-63
2023/01/23 06:29:26;;;;;;;9.87;7.33;;;4.00;99.90;;;;;;5002994;28;20178;-63
2023/01/23 06:31:51;;;;;;;10.30;7.77;;;3.90;99.90;;;;;;5015663;28;20194;-63
2023/01/23 06:34:17;;;;;;;11.33;8.03;;;3.90;99.90;;;;;;5015407;28;20570;-64
2023/01/23 06:36:43;;;;;;;11.87;8.47;;;3.90;99.90;;;;;;5015212;28;20190;-62
2023/01/23 06:39:12;;;;;;;10.63;7.67;;;3.90;99.90;;;;;;5015436;28;20202;-65
2023/01/23 06:41:42;;;;;;;9.70;6.70;;;3.90;99.90;;;;;;5015361;28;20207;-63
2023/01/23 06:44:10;;;;;;;10.63;7.60;;;3.90;99.90;;;;;;5015789;28;20262;-64
2023/01/23 06:46:38;;;;;;;11.33;7.57;;;3.90;99.90;;;;;;5015611;28;20213;-63
2023/01/23 06:49:04;;;;;;;10.27;7.53;;;3.90;99.90;;;;;;5015023;28;20170;-63
2023/01/23 06:51:31;;;;;;;11.40;8.03;;;3.90;99.90;;;;;;5014792;28;20216;-63
2023/01/23 06:53:59;;;;;;;10.73;8.23;;;3.90;99.90;;;;;;5024038;28;20265;-64
2023/01/23 06:56:25;;;;;;;11.13;7.47;;;3.90;99.90;;;;;;5015528;28;20196;-64
2023/01/23 06:58:51;;;;;;;10.63;7.53;;;3.90;99.90;;;;;;5014904;28;20183;-65
2023/01/23 07:01:18;;;;;;;11.33;8.00;;;3.90;99.90;;;;;;5015133;28;20198;-64
2023/01/23 07:03:44;;;;;;;11.00;7.83;;;3.90;99.90;;;;;;5012823;28;20205;-64
2023/01/23 07:06:13;;;;;;;11.97;7.93;;;4.00;99.90;;;;;;5013513;28;20175;-65
2023/01/23 07:08:40;;;;;;;12.23;7.93;;;4.00;99.90;;;;;;5015468;28;20171;-66
2023/01/23 07:11:06;;;;;;;9.73;7.47;;;4.00;99.90;;;;;;5015138;28;20210;-65
2023/01/23 07:13:32;;;;;;;11.47;8.17;;;4.00;99.90;;;;;;5015395;28;20183;-64
2023/01/23 07:15:58;;;;;;;10.03;7.17;;;4.00;99.90;;;;;;5015625;28;20180;-64
2023/01/23 07:18:27;;;;;;;9.73;7.17;;;4.00;99.90;;;;;;5015182;28;20221;-64
2023/01/23 07:20:53;;;;;;;12.10;8.40;;;4.00;99.90;;;;;;5015263;28;20202;-65
2023/01/23 07:23:22;;;;;;;10.43;7.80;;;4.00;99.90;;;;;;5015228;28;20202;-65
2023/01/23 07:25:51;;;;;;;10.53;7.57;;;4.00;99.90;;;;;;5015449;28;20266;-64
2023/01/23 07:28:16;;;;;;;10.73;8.10;;;4.00;99.90;;;;;;5015287;28;20229;-65
2023/01/23 07:30:45;;;;;;;11.73;8.70;;;4.00;99.90;;;;;;5015159;28;20202;-66
2023/01/23 07:33:11;;;;;;;10.37;8.00;;;4.00;99.90;;;;;;5015098;28;20183;-64
2023/01/23 07:35:40;;;;;;;11.57;8.63;;;4.00;99.90;;;;;;5015325;28;20212;-64
2023/01/23 07:38:06;;;;;;;10.43;7.87;;;4.00;99.90;;;;;;5015109;28;20187;-63
2023/01/23 07:40:37;;;;;;;11.80;8.37;;;4.00;99.90;;;;;;5021733;28;20267;-64
2023/01/23 07:43:03;;;;;;;11.10;7.90;;;4.00;99.90;;;;;;5016855;28;20291;-65
2023/01/23 07:45:32;;;;;;;10.10;7.67;;;3.90;99.90;;;;;;4995489;28;20245;-64
2023/01/23 07:47:57;;;;;;;11.23;7.73;;;4.00;99.90;;;;;;4995289;28;20226;-64
2023/01/23 07:50:25;;;;;;;10.83;7.87;;;4.10;99.90;;;;;;4995650;28;20167;-64
2023/01/23 07:52:53;;;;;;;12.10;8.27;;;4.00;99.90;;;;;;5005730;28;20191;-65
2023/01/23 07:55:21;;;;;;;11.03;8.20;;;4.00;99.90;;;;;;5015118;28;20195;-64
2023/01/23 07:57:49;;;;;;;10.53;7.63;;;4.00;99.90;;;;;;5015051;28;20337;-64
2023/01/23 08:00:17;;;;;;;11.90;7.33;;;4.00;99.90;;;;;;5008261;28;20457;-65
2023/01/23 08:02:43;;;;;;;9.27;7.30;;;4.10;99.90;;;;;;4996826;28;20171;-64
2023/01/23 08:05:11;;;;;;;11.43;7.67;;;4.10;99.90;;;;;;5014971;28;20166;-64
2023/01/23 08:07:39;;;;;;;10.03;7.53;;;4.10;99.90;;;;;;5014496;28;20337;-64
2023/01/23 08:10:08;;;;;;;10.90;8.07;;;4.20;99.90;;;;;;5014575;28;20277;-65
2023/01/23 08:12:34;;;;;;;11.23;8.30;;;4.20;99.90;;;;;;5014644;28;20950;-64
2023/01/23 08:14:59;;;;;;;11.60;7.93;;;4.20;99.90;;;;;;5014668;28;20182;-64
2023/01/23 08:17:27;;;;;;;10.20;7.40;;;4.20;99.90;;;;;;5006719;28;20202;-64
2023/01/23 08:19:53;;;;;;;10.93;8.03;;;4.20;99.90;;;;;;5003021;28;20210;-64
2023/01/23 08:22:18;;;;;;;10.03;7.77;;;4.20;99.90;;;;;;5000848;28;20201;-64
2023/01/23 08:24:44;;;;;;;9.53;7.40;;;4.20;99.90;;;;;;5009931;28;20237;-66
2023/01/23 08:27:13;;;;;;;11.07;8.07;;;4.20;99.90;;;;;;4996098;28;20194;-64
2023/01/23 08:29:38;;;;;;;10.30;7.47;;;4.20;99.90;;;;;;5004946;28;20215;-65
2023/01/23 08:32:04;;;;;;;11.00;7.70;;;4.20;99.90;;;;;;4994459;28;20222;-65
2023/01/23 08:34:30;;;;;;;11.20;8.43;;;4.30;99.90;;;;;;4995022;28;20266;-64
2023/01/23 08:36:58;;;;;;;10.40;7.90;;;4.30;99.90;;;;;;4994793;28;20193;-66
2023/01/23 08:39:24;;;;;;;10.37;7.93;;;4.40;99.90;;;;;;4994010;28;20297;-65
2023/01/23 08:41:52;;;;;;;10.37;7.53;;;4.30;99.90;;;;;;5008799;28;20293;-66
2023/01/23 08:44:18;;;;;;;11.43;8.10;;;4.30;99.90;;;;;;5014008;28;20244;-66
2023/01/23 08:46:47;;;;;;;10.67;8.00;;;4.30;99.90;;;;;;5014195;28;20182;-66
2023/01/23 08:49:12;;;;;;;10.03;7.27;;;4.30;99.90;;;;;;5014110;28;20266;-65
2023/01/23 08:51:38;;;;;;;11.10;7.27;;;4.30;99.90;;;;;;5004580;28;20314;-65
2023/01/23 08:54:08;;;;;;;9.77;7.33;;;4.40;99.90;;;;;;5002417;28;20202;-65
2023/01/23 08:56:34;;;;;;;9.73;7.10;;;4.40;99.90;;;;;;4994342;28;20175;-65
2023/01/23 08:59:04;;;;;;;9.43;7.13;;;4.40;99.90;;;;;;4994322;28;20187;-63
2023/01/23 09:01:32;;;;;;;10.13;7.40;;;4.40;99.90;;;;;;4994623;28;20199;-65
2023/01/23 09:03:57;;;;;;;9.23;7.17;;;4.70;99.90;;;;;;4994002;28;20208;-65
2023/01/23 09:06:27;;;;;;;9.97;7.13;;;4.50;99.90;;;;;;4994724;28;20321;-65
2023/01/23 09:08:53;;;;;;;10.50;7.50;;;4.50;99.90;;;;;;5005975;28;20203;-65
2023/01/23 09:11:19;;;;;;;10.07;7.33;;;4.50;99.90;;;;;;5013954;28;20252;-66
2023/01/23 09:13:45;;;;;;;10.87;7.30;;;4.50;99.90;;;;;;5016231;28;20174;-66
2023/01/23 09:16:11;;;;;;;11.17;7.80;;;4.50;99.90;;;;;;5017993;28;20213;-65
2023/01/23 09:18:39;;;;;;;10.17;7.73;;;4.60;99.90;;;;;;5017796;28;20190;-65
2023/01/23 09:21:06;;;;;;;11.47;7.87;;;4.60;99.90;;;;;;5015840;28;20206;-66
2023/01/23 09:23:32;;;;;;;9.80;7.40;;;4.60;99.90;;;;;;5017331;28;20301;-62
2023/01/23 09:26:09;;;;;;;11.53;7.50;;;4.60;99.90;;;;;;5017373;28;20185;-65
2023/01/23 09:28:40;;;;;;;11.10;8.37;;;4.70;99.90;;;;;;5017677;28;20202;-65
2023/01/23 09:31:13;;;;;;;11.23;7.93;;;4.70;99.90;;;;;;5017764;28;20245;-65
2023/01/23 09:33:39;;;;;;;10.67;7.50;;;4.70;99.90;;;;;;5017683;28;20182;-65
2023/01/23 09:36:06;;;;;;;10.23;7.20;;;4.70;99.90;;;;;;5017449;28;20244;-63
2023/01/23 09:38:32;;;;;;;10.13;7.37;;;4.80;99.90;;;;;;5017487;28;20189;-63
2023/01/23 09:41:06;;;;;;;9.93;7.60;;;4.80;99.90;;;;;;5017069;28;20198;-62
2023/01/23 09:43:47;;;;;;;9.53;7.30;;;4.80;99.90;;;;;;5001313;28;20184;-63
2023/01/23 09:46:26;;;;;;;11.00;7.90;;;4.80;99.90;;;;;;5015973;28;20205;-65
2023/01/23 09:49:13;;;;;;;7.97;6.40;;;4.90;99.90;;;;;;5017415;28;20255;-65
2023/01/23 09:52:06;;;;;;;9.53;6.77;;;4.90;99.90;;;;;;5016788;28;20222;-65
2023/01/23 09:54:43;;;;;;;9.43;6.97;;;4.90;99.90;;;;;;4999810;28;20199;-65
2023/01/23 09:57:24;;;;;;;8.57;6.60;;;5.00;99.90;;;;;;4998588;28;20175;-66
2023/01/23 10:00:16;;;;;;;8.77;6.50;;;5.00;99.90;;;;;;4997010;28;20160;-66
2023/01/23 10:02:43;;;;;;;8.67;6.97;;;5.10;99.90;;;;;;4991745;28;20175;-65
2023/01/23 10:05:14;;;;;;;9.87;7.30;;;5.10;99.90;;;;;;5017155;28;20171;-66
2023/01/23 10:07:52;;;;;;;9.50;7.20;;;5.10;99.90;;;;;;5016558;28;20199;-65
2023/01/23 10:10:39;;;;;;;9.03;6.77;;;5.20;99.90;;;;;;5016753;28;20170;-66
2023/01/23 10:13:18;;;;;;;8.57;6.90;;;5.20;99.90;;;;;;5016656;28;20202;-65
2023/01/23 10:16:08;;;;;;;9.60;6.80;;;5.20;99.90;;;;;;5014349;28;20206;-63
2023/01/23 10:18:57;;;;;;;8.37;6.23;;;5.30;99.90;;;;;;5007305;28;20179;-65
2023/01/23 10:21:23;;;;;;;8.77;6.37;;;5.30;99.90;;;;;;5016424;28;20205;-65
2023/01/23 10:24:05;;;;;;;10.13;7.27;;;5.50;99.90;;;;;;5015679;28;20167;-65
2023/01/23 10:26:35;;;;;;;9.00;6.60;;;5.40;99.90;;;;;;5013305;28;20199;-65
2023/01/23 10:29:14;;;;;;;8.80;6.47;;;5.40;99.90;;;;;;5000253;28;20178;-65
2023/01/23 10:31:46;;;;;;;8.43;6.37;;;5.50;99.90;;;;;;5016277;28;20206;-65
2023/01/23 10:34:33;;;;;;;8.77;6.83;;;5.60;99.90;;;;;;5016229;28;20179;-66
2023/01/23 10:37:01;;;;;;;9.07;6.37;;;5.60;99.90;;;;;;5016400;28;20170;-65
2023/01/23 10:39:57;;;;;;;8.37;6.30;;;5.60;99.90;;;;;;5016053;28;20206;-64
2023/01/23 10:42:28;;;;;;;7.53;6.20;;;5.60;99.90;;;;;;4997406;28;20191;-64
2023/01/23 10:44:58;;;;;;;6.83;5.73;;;5.80;99.90;;;;;;5016254;28;20194;-64
2023/01/23 10:47:37;;;;;;;7.90;6.17;;;5.70;99.90;;;;;;5015988;28;20188;-64
2023/01/23 10:50:04;;;;;;;7.10;5.90;;;5.70;99.90;;;;;;5016380;28;20209;-64
2023/01/23 10:52:34;;;;;;;7.73;6.17;;;5.70;99.90;;;;;;5016011;28;20260;-64
2023/01/23 10:55:00;;;;;;;7.47;6.17;;;5.80;99.90;;;;;;5016552;28;20229;-65
2023/01/23 10:57:31;;;;;;;8.10;6.13;;;5.80;99.90;;;;;;5015792;28;20210;-65
2023/01/23 11:00:08;;;;;;;7.37;6.00;;;5.80;99.90;;;;;;5016049;28;20183;-65
2023/01/23 11:02:36;;;;;;;8.03;6.23;;;5.90;99.90;;;;;;5015874;28;20190;-64
2023/01/23 11:05:34;;;;;;;8.53;6.40;;;6.00;99.90;;;;;;5015954;28;20178;-65
2023/01/23 11:08:02;;;;;;;7.63;6.27;;;6.00;99.90;;;;;;5015385;28;20186;-64
2023/01/23 11:10:27;;;;;;;8.07;6.10;;;6.00;99.90;;;;;;5015547;28;20202;-65
2023/01/23 11:12:54;;;;;;;6.77;5.73;;;6.00;99.90;;;;;;5015611;28;20174;-64
2023/01/23 11:15:27;;;;;;;7.53;5.73;;;6.10;99.90;;;;;;4996225;28;20187;-64
2023/01/23 11:17:59;;;;;;;6.63;5.73;;;6.20;99.90;;;;;;5003622;28;20248;-65
2023/01/23 11:20:30;;;;;;;6.47;5.10;;;6.20;99.90;;;;;;5015473;28;20206;-65
2023/01/23 11:23:09;;;;;;;6.60;4.90;;;6.20;99.90;;;;;;5015299;28;20194;-64
2023/01/23 11:25:43;;;;;;;6.07;4.47;;;6.30;99.90;;;;;;5015018;28;20179;-65
2023/01/23 11:28:33;;;;;;;6.07;4.87;;;6.30;99.90;;;;;;5015346;28;20170;-65
2023/01/23 11:31:14;;;;;;;5.00;4.50;;;6.30;99.90;;;;;;5015359;28;20205;-64
2023/01/23 11:34:22;;;;;;;4.90;4.27;;;6.30;99.90;;;;;;5012667;28;20185;-65
2023/01/23 11:37:01;;;;;;;4.30;3.77;;;6.30;99.90;;;;;;4958390;28;20186;-64
2023/01/23 11:39:49;;;;;;;4.63;4.00;;;6.30;99.90;;;;;;4958822;28;20180;-64
2023/01/23 11:42:18;;;;;;;5.90;3.77;;;6.30;99.90;;;;;;4999452;28;20186;-65
2023/01/23 11:44:45;;;;;;;4.17;3.77;;;6.30;99.90;;;;;;4996837;28;20206;-64
2023/01/23 11:47:30;;;;;;;3.77;3.27;;;6.20;99.90;;;;;;5015318;28;20194;-64
2023/01/23 11:50:04;;;;;;;4.10;3.70;;;6.30;99.90;;;;;;5014986;28;20174;-65
2023/01/23 11:52:33;;;;;;;4.90;3.67;;;6.20;99.90;;;;;;5015016;28;20190;-63
2023/01/23 11:55:29;;;;;;;4.43;3.93;;;6.30;99.90;;;;;;4997406;28;20211;-66
2023/01/23 11:58:17;;;;;;;4.67;3.83;;;6.30;99.90;;;;;;5013168;28;20236;-63
2023/01/23 12:01:11;;;;;;;4.43;3.60;;;6.30;99.90;;;;;;4995055;28;20266;-64
2023/01/23 12:03:55;;;;;;;4.53;3.33;;;6.40;99.90;;;;;;4932977;28;20196;-65
2023/01/23 12:06:52;;;;;;;4.10;3.30;;;6.40;99.90;;;;;;5001220;28;20198;-64
2023/01/23 12:09:25;;;;;;;3.53;3.17;;;6.50;99.90;;;;;;5015225;28;20178;-64
2023/01/23 12:12:23;;;;;;;3.47;3.10;;;6.50;99.90;;;;;;5014344;28;20170;-65
2023/01/23 12:15:01;;;;;;;3.63;3.27;;;6.40;99.90;;;;;;4995351;28;20183;-64
2023/01/23 12:17:55;;;;;;;4.00;3.37;;;6.50;99.90;;;;;;4995051;28;20229;-66
2023/01/23 12:21:06;;;;;;;3.70;3.27;;;6.50;99.90;;;;;;5003607;28;20233;-64
2023/01/23 12:23:52;;;;;;;4.23;3.70;;;6.40;99.90;;;;;;5015068;28;20163;-64
2023/01/23 12:26:25;;;;;;;4.03;3.50;;;6.40;99.90;;;;;;5013582;28;20215;-64
2023/01/23 12:29:29;;;;;;;4.20;3.70;;;6.40;99.90;;;;;;5014432;28;20175;-64
2023/01/23 12:32:21;;;;;;;3.50;3.13;;;6.40;99.90;;;;;;5014189;28;20198;-64
2023/01/23 12:34:57;;;;;;;3.67;3.20;;;6.40;99.90;;;;;;5014202;28;20258;-64
2023/01/23 12:37:34;;;;;;;4.10;3.70;;;6.50;99.90;;;;;;4998446;28;20211;-65
2023/01/23 12:40:11;;;;;;;3.70;3.30;;;6.40;99.90;;;;;;5011275;28;20159;-63
2023/01/23 12:42:40;;;;;;;4.20;3.17;;;6.40;99.90;;;;;;5011308;28;20159;-64
2023/01/23 12:45:22;;;;;;;4.00;3.50;;;6.40;99.90;;;;;;5011108;28;20213;-65
2023/01/23 12:48:14;;;;;;;3.90;3.40;;;6.40;99.90;;;;;;5005279;28;20163;-64
2023/01/23 12:50:54;;;;;;;3.97;3.40;;;6.40;99.90;;;;;;5016121;28;20216;-64
2023/01/23 12:53:25;;;;;;;4.63;3.40;;;6.40;99.90;;;;;;5018439;28;20201;-64
2023/01/23 12:56:02;;;;;;;3.80;3.30;;;6.50;99.90;;;;;;5018110;28;20198;-64
2023/01/23 12:58:32;;;;;;;4.00;3.23;;;6.50;99.90;;;;;;4999065;28;20182;-64
2023/01/23 13:01:23;;;;;;;3.40;3.10;;;6.50;99.90;;;;;;5012350;28;20218;-65
2023/01/23 13:04:07;;;;;;;4.97;3.07;;;6.50;99.90;;;;;;5017852;28;20170;-64
2023/01/23 13:06:47;;;;;;;3.50;3.20;;;6.50;99.90;;;;;;5009402;28;20182;-64
2023/01/23 13:09:37;;;;;;;3.47;2.90;;;6.50;99.90;;;;;;5008040;28;20166;-65
2023/01/23 13:12:20;;;;;;;3.30;2.90;;;6.50;99.90;;;;;;5008116;28;20183;-64